createdAt,value
2023-03-15T00:03:07.993Z,56.66
2023-03-15T00:08:12.572Z,56.89
2023-03-15T00:13:16.566Z,57.28
2023-03-15T00:18:20.551Z,57.53
2023-03-15T00:23:24.717Z,57.52
2023-03-15T00:28:27.397Z,58.03
2023-03-15T00:33:34.584Z,57.93
2023-03-15T00:38:40.240Z,58.24
2023-03-15T00:43:43.299Z,58.38
2023-03-15T00:48:49.028Z,58.59
2023-03-15T00:53:54.002Z,59.10
2023-03-15T00:58:58.166Z,59.05
2023-03-15T01:04:01.309Z,59.35
2023-03-15T01:09:05.730Z,59.61
2023-03-15T01:14:09.108Z,59.87
2023-03-15T01:19:13.237Z,60.03
2023-03-15T01:24:17.306Z,60.30
2023-03-15T01:29:19.939Z,60.54
2023-03-15T01:34:22.795Z,60.74
2023-03-15T01:39:27.034Z,60.96
2023-03-15T01:44:49.521Z,60.96
2023-03-15T01:49:56.685Z,61.32
2023-03-15T01:55:02.417Z,61.50
2023-03-15T02:00:11.792Z,61.63
2023-03-15T02:05:28.383Z,61.77
2023-03-15T02:10:36.796Z,61.79
2023-03-15T02:15:46.763Z,61.88
2023-03-15T02:21:00.350Z,62.11
2023-03-15T02:26:12.143Z,62.16
2023-03-15T02:31:17.978Z,62.13
2023-03-15T02:36:22.728Z,62.31
2023-03-15T02:41:28.464Z,62.59
2023-03-15T02:46:32.443Z,62.66
2023-03-15T02:51:35.552Z,62.72
2023-03-15T02:56:38.333Z,62.95
2023-03-15T03:01:45.696Z,63.01
2023-03-15T03:06:48.680Z,63.23
2023-03-15T03:11:56.893Z,63.13
2023-03-15T03:17:01.578Z,63.59
2023-03-15T03:22:04.515Z,63.64
2023-03-15T03:27:07.426Z,63.47
2023-03-15T03:32:14.554Z,63.58
2023-03-15T03:37:18.430Z,63.95
2023-03-15T03:42:32.596Z,64.09
2023-03-15T03:47:36.611Z,63.88
2023-03-15T03:52:39.403Z,64.18
2023-03-15T03:57:46.559Z,64.20
2023-03-15T04:02:59.116Z,63.99
2023-03-15T04:08:01.866Z,64.05
2023-03-15T04:13:09.364Z,64.42
2023-03-15T04:18:13.635Z,64.34
2023-03-15T04:23:19.053Z,64.51
2023-03-15T04:28:38.080Z,64.38
2023-03-15T04:34:11.513Z,64.64
2023-03-15T04:39:32.936Z,64.59
2023-03-15T04:44:54.737Z,64.45
2023-03-15T04:50:31.632Z,64.56
2023-03-15T04:55:43.389Z,64.79
2023-03-15T05:00:53.744Z,64.84
2023-03-15T05:06:08.005Z,64.55
2023-03-15T05:11:33.916Z,64.57
2023-03-15T05:16:47.742Z,64.92
2023-03-15T05:21:57.809Z,65.03
2023-03-15T05:27:13.534Z,64.82
2023-03-15T05:32:35.530Z,65.06
2023-03-15T05:37:56.428Z,65.13
2023-03-15T05:43:09.847Z,64.87
2023-03-15T05:48:32.792Z,64.98
2023-03-15T05:54:05.672Z,64.96
2023-03-15T05:59:14.192Z,65.05
2023-03-15T06:04:49.242Z,65.03
2023-03-15T06:09:57.636Z,65.18
2023-03-15T06:15:01.717Z,64.61
2023-03-15T06:20:05.376Z,64.69
2023-03-15T06:25:11.121Z,65.05
2023-03-15T06:30:16.957Z,65.05
2023-03-15T06:35:21.039Z,64.94
2023-03-15T06:40:25.175Z,64.73
2023-03-15T06:45:28.475Z,65.05
2023-03-15T06:50:46.100Z,65.04
2023-03-15T06:55:52.117Z,64.09
2023-03-15T07:00:54.820Z,62.38
2023-03-15T07:05:57.473Z,61.24
2023-03-15T07:11:01.756Z,59.34
2023-03-15T07:16:04.753Z,57.93
2023-03-15T07:21:08.131Z,56.31
2023-03-15T07:26:12.201Z,55.45
2023-03-15T07:31:15.159Z,55.03
2023-03-15T07:36:17.814Z,54.55
2023-03-15T07:41:22.198Z,53.99
2023-03-15T07:46:34.150Z,53.92
2023-03-15T07:51:36.842Z,53.80
2023-03-15T07:56:40.869Z,53.84
2023-03-15T08:01:43.580Z,53.94
2023-03-15T08:06:46.236Z,53.94
2023-03-15T08:11:50.285Z,53.74
2023-03-15T08:16:53.184Z,53.88
2023-03-15T08:21:55.823Z,53.80
2023-03-15T08:26:59.857Z,53.66
2023-03-15T08:32:03.186Z,51.67
2023-03-15T08:37:05.932Z,50.87
2023-03-15T08:42:10.542Z,51.60
2023-03-15T08:47:13.239Z,50.82
2023-03-15T08:52:40.800Z,51.18
2023-03-15T08:57:44.949Z,51.64
2023-03-15T09:02:49.007Z,53.17
2023-03-15T09:07:52.990Z,53.25
2023-03-15T09:12:57.126Z,54.30
2023-03-15T09:17:59.785Z,54.76
2023-03-15T09:23:02.523Z,51.36
2023-03-15T09:28:07.620Z,51.04
2023-03-15T09:33:14.568Z,50.10
2023-03-15T09:38:17.747Z,51.08
2023-03-15T09:43:51.789Z,51.96
2023-03-15T09:48:56.604Z,52.01
2023-03-15T09:54:01.613Z,51.58
2023-03-15T09:59:06.133Z,50.19
2023-03-15T10:04:12.444Z,49.75
2023-03-15T10:09:19.358Z,49.77
2023-03-15T10:14:29.086Z,50.09
2023-03-15T10:19:38.836Z,50.25
2023-03-15T10:24:47.672Z,49.94
2023-03-15T10:30:40.590Z,49.13
2023-03-15T10:36:29.300Z,47.41
2023-03-15T10:48:00.247Z,46.54
2023-03-15T10:54:28.520Z,45.99
2023-03-15T11:00:06.564Z,46.25
2023-03-15T11:05:17.647Z,45.85
2023-03-15T11:10:23.240Z,46.02
2023-03-15T11:15:27.263Z,46.43
2023-03-15T11:20:31.870Z,46.48
2023-03-15T11:25:34.586Z,46.94
2023-03-15T11:30:40.316Z,47.06
2023-03-15T11:35:48.070Z,46.66
2023-03-15T11:40:56.624Z,46.69
2023-03-15T11:46:03.001Z,46.74
2023-03-15T11:51:17.008Z,47.12
2023-03-15T11:56:25.353Z,47.05
2023-03-15T12:01:29.406Z,47.86
2023-03-15T12:06:38.484Z,47.88
2023-03-15T12:11:42.635Z,48.44
2023-03-15T12:16:47.662Z,49.85
2023-03-15T12:21:52.152Z,49.10
2023-03-15T12:27:01.605Z,47.41
2023-03-15T12:32:13.533Z,47.33
2023-03-15T12:37:19.584Z,46.98
2023-03-15T12:43:08.603Z,46.53
2023-03-15T12:48:26.135Z,46.87
2023-03-15T12:53:43.944Z,46.73
2023-03-15T12:58:48.400Z,47.56
2023-03-15T13:03:55.936Z,47.59
2023-03-15T13:09:03.205Z,47.59
2023-03-15T13:14:13.120Z,47.88
2023-03-15T13:19:22.811Z,47.62
2023-03-15T13:24:32.686Z,47.70
2023-03-15T13:29:35.518Z,48.03
2023-03-15T13:34:39.622Z,48.22
2023-03-15T13:39:54.979Z,48.75
2023-03-15T13:45:18.801Z,49.17
2023-03-15T13:50:22.977Z,48.90
2023-03-15T13:55:25.690Z,49.88
2023-03-15T14:00:28.561Z,49.71
2023-03-15T14:05:34.685Z,49.14
2023-03-15T14:10:38.467Z,48.37
2023-03-15T14:15:44.298Z,47.91
2023-03-15T14:20:54.194Z,48.65
2023-03-15T14:26:01.045Z,48.20
2023-03-15T14:31:04.326Z,48.11
2023-03-15T14:36:12.754Z,48.00
2023-03-15T14:41:26.325Z,48.00
2023-03-15T14:46:29.300Z,48.07
2023-03-15T14:51:33.640Z,48.42
2023-03-15T14:56:37.685Z,48.73
2023-03-15T15:01:42.036Z,49.18
2023-03-15T15:06:51.415Z,49.54
2023-03-15T15:11:54.746Z,49.98
2023-03-15T15:16:57.468Z,49.84
2023-03-15T15:22:01.617Z,50.42
2023-03-15T15:27:04.251Z,50.21
2023-03-15T15:32:07.590Z,50.55
2023-03-15T15:37:12.146Z,50.44
2023-03-15T15:42:14.836Z,50.14
2023-03-15T15:47:17.573Z,49.90
2023-03-15T15:52:22.731Z,49.76
2023-03-15T15:57:26.596Z,49.84
2023-03-15T16:02:29.344Z,49.58
2023-03-15T16:07:33.460Z,49.75
2023-03-15T16:12:36.229Z,49.79
2023-03-15T16:17:38.855Z,50.15
2023-03-15T16:22:44.437Z,50.89
2023-03-15T16:27:47.121Z,51.53
2023-03-15T16:32:49.970Z,52.55
2023-03-15T16:37:57.148Z,53.23
2023-03-15T16:42:59.855Z,53.59
2023-03-15T16:48:02.525Z,54.84
2023-03-15T16:53:08.627Z,55.26
2023-03-15T16:58:16.193Z,55.24
2023-03-15T17:03:18.956Z,55.56
2023-03-15T17:08:23.742Z,56.20
2023-03-15T17:13:51.942Z,56.52
2023-03-15T17:18:54.609Z,57.00
2023-03-15T17:23:58.706Z,57.29
2023-03-15T17:29:01.939Z,57.62
2023-03-15T17:34:04.666Z,57.65
2023-03-15T17:39:10.457Z,57.86
2023-03-15T17:44:17.704Z,58.22
2023-03-15T17:49:20.877Z,58.53
2023-03-15T17:54:25.334Z,58.92
2023-03-15T17:59:51.285Z,58.77
2023-03-15T18:05:17.720Z,59.14
2023-03-15T18:10:23.768Z,59.52
2023-03-15T18:15:26.530Z,59.40
2023-03-15T18:31:31.856Z,60.41
2023-03-15T18:36:34.644Z,60.80
2023-03-15T18:41:37.296Z,60.66
2023-03-15T18:46:43.847Z,60.85
2023-03-15T18:51:46.552Z,61.09
2023-03-15T18:56:49.533Z,61.31
2023-03-15T19:03:01.949Z,61.06
2023-03-15T19:08:06.234Z,59.75
2023-03-15T19:14:08.889Z,58.48
2023-03-15T19:19:11.610Z,57.55
2023-03-15T19:24:15.666Z,56.35
2023-03-15T19:29:18.367Z,55.64
2023-03-15T19:34:21.103Z,54.61
2023-03-15T19:39:25.132Z,54.21
2023-03-15T19:44:30.555Z,53.41
2023-03-15T19:49:33.288Z,52.80
2023-03-15T19:54:38.439Z,52.97
2023-03-15T19:59:41.624Z,52.83
2023-03-15T20:05:01.560Z,52.64
2023-03-15T20:10:08.347Z,52.73
2023-03-15T20:16:26.572Z,52.02
2023-03-15T20:21:29.934Z,52.73
2023-03-15T20:26:34.007Z,52.47
2023-03-15T20:31:55.743Z,52.28
2023-03-15T20:36:58.448Z,52.74
2023-03-15T20:42:07.388Z,53.23
2023-03-15T20:47:10.195Z,53.98
2023-03-15T20:52:13.041Z,53.69
2023-03-15T20:57:17.106Z,53.35
2023-03-15T21:02:19.926Z,53.84
2023-03-15T21:07:22.694Z,54.21
2023-03-15T21:18:35.939Z,54.93
2023-03-15T21:24:05.649Z,55.45
2023-03-15T21:29:08.349Z,54.91
2023-03-15T21:34:12.382Z,54.60
2023-03-15T21:39:15.152Z,53.97
2023-03-15T21:50:34.516Z,53.82
2023-03-15T22:02:16.677Z,53.34
2023-03-15T22:07:20.719Z,53.80
2023-03-15T22:12:25.318Z,53.55
2023-03-15T22:17:29.277Z,53.68
2023-03-15T22:22:33.387Z,53.47
2023-03-15T22:27:36.106Z,54.21
2023-03-15T22:32:38.865Z,54.49
2023-03-15T22:37:43.080Z,54.17
2023-03-15T22:42:46.828Z,54.61
2023-03-15T22:48:00.999Z,54.23
2023-03-15T22:53:05.036Z,54.94
2023-03-15T22:58:07.702Z,55.33
2023-03-15T23:03:10.400Z,55.58
2023-03-15T23:08:14.433Z,56.11
2023-03-15T23:13:17.390Z,56.55
2023-03-15T23:18:20.104Z,56.81
2023-03-15T23:23:25.314Z,57.05
2023-03-15T23:28:28.038Z,57.48
2023-03-15T23:33:33.911Z,57.65
2023-03-15T23:38:37.930Z,57.77
2023-03-15T23:43:41.551Z,58.05
2023-03-15T23:48:44.323Z,58.41
2023-03-15T23:53:48.349Z,58.88
2023-03-15T23:58:51.006Z,59.08
